Terminal Aerodrome Forecast
Issued by NWS Boston, MA

Current Version | Previous Version | Text Only | Print | Product List | Glossary On
Versions: 1 2 3 4 5 6 7 8 9 10 11 12 13 14 15 16 17 18 19 20 21 22 23
000 FTUS41 KBOX 300836 AAA TAFPVD TAF AMD KPVD 300836Z 3009/3106 05005KT P6SM OVC006 FM301200 VRB03KT P6SM BKN015 FM301900 16008KT P6SM BKN250 FM302200 17008KT P6SM BKN010 FM310100 16007KT 3SM BR BKN010 FM310500 17005KT 6SM BR VCSH BKN010=

USA.gov is the U.S. government's official web portal to all federal, state and local government web resources and services.